sensor_id;sensor_type;location;lat;lon;timestamp;pressure;altitude;pressure_sealevel;temperature;humidity
61908;BME280;47864;52.526;19.672;2023-06-04T00:01:42;151245.81;;;8.95;98.95
61908;BME280;47864;52.526;19.672;2023-06-04T00:03:44;151258.44;;;9.00;98.40
61908;BME280;47864;52.526;19.672;2023-06-04T00:05:46;151262.22;;;9.01;99.40
61908;BME280;47864;52.526;19.672;2023-06-04T00:07:47;151260.97;;;9.01;98.01
61908;BME280;47864;52.526;19.672;2023-06-04T00:09:49;151276.09;;;9.07;98.88
61908;BME280;47864;52.526;19.672;2023-06-04T00:11:50;151277.38;;;9.07;98.52
61908;BME280;47864;52.526;19.672;2023-06-04T00:13:52;151277.38;;;9.07;98.45
61908;BME280;47864;52.526;19.672;2023-06-04T00:15:54;151266.03;;;9.03;99.15
61908;BME280;47864;52.526;19.672;2023-06-04T00:17:56;151276.09;;;9.07;99.30
61908;BME280;47864;52.526;19.672;2023-06-04T00:19:57;151293.81;;;9.14;99.42
61908;BME280;47864;52.526;19.672;2023-06-04T00:21:59;151282.44;;;9.09;100.00
61908;BME280;47864;52.526;19.672;2023-06-04T00:24:01;151310.22;;;9.21;100.00
61908;BME280;47864;52.526;19.672;2023-06-04T00:26:03;151316.50;;;9.23;100.00
61908;BME280;47864;52.526;19.672;2023-06-04T00:28:05;151314.03;;;9.22;99.98
61908;BME280;47864;52.526;19.672;2023-06-04T00:30:07;151334.22;;;9.30;99.43
61908;BME280;47864;52.526;19.672;2023-06-04T00:32:09;151329.16;;;9.28;100.00
61908;BME280;47864;52.526;19.672;2023-06-04T00:34:11;151316.50;;;9.23;99.59
61908;BME280;47864;52.526;19.672;2023-06-04T00:36:13;151306.44;;;9.19;97.94
61908;BME280;47864;52.526;19.672;2023-06-04T00:38:14;151287.50;;;9.11;97.96
61908;BME280;47864;52.526;19.672;2023-06-04T00:40:16;151291.28;;;9.13;98.81
61908;BME280;47864;52.526;19.672;2023-06-04T00:42:17;151291.28;;;9.13;97.83
61908;BME280;47864;52.526;19.672;2023-06-04T00:44:20;151255.91;;;8.99;98.49
61908;BME280;47864;52.526;19.672;2023-06-04T00:46:25;151262.22;;;9.01;98.72
61908;BME280;47864;52.526;19.672;2023-06-04T00:48:27;151242.03;;;8.93;99.78
61908;BME280;47864;52.526;19.672;2023-06-04T00:50:29;151235.72;;;8.91;98.78
61908;BME280;47864;52.526;19.672;2023-06-04T00:52:30;151238.25;;;8.92;100.00
61908;BME280;47864;52.526;19.672;2023-06-04T00:54:32;151220.56;;;8.85;100.00
61908;BME280;47864;52.526;19.672;2023-06-04T00:56:35;151204.16;;;8.78;100.00
61908;BME280;47864;52.526;19.672;2023-06-04T00:58:38;151202.91;;;8.77;100.00
61908;BME280;47864;52.526;19.672;2023-06-04T01:00:40;151204.16;;;8.78;100.00
61908;BME280;47864;52.526;19.672;2023-06-04T01:02:43;151210.50;;;8.81;100.00
61908;BME280;47864;52.526;19.672;2023-06-04T01:04:53;151209.22;;;8.80;99.77
61908;BME280;47864;52.526;19.672;2023-06-04T01:06:57;151210.50;;;8.81;100.00
61908;BME280;47864;52.526;19.672;2023-06-04T01:08:59;151195.31;;;8.74;100.00
61908;BME280;47864;52.526;19.672;2023-06-04T01:11:01;151181.44;;;8.69;100.00
61908;BME280;47864;52.526;19.672;2023-06-04T01:13:03;151158.72;;;8.60;100.00
61908;BME280;47864;52.526;19.672;2023-06-04T01:15:05;151176.38;;;8.67;100.00
61908;BME280;47864;52.526;19.672;2023-06-04T01:22:04;151190.31;;;8.72;100.00
61908;BME280;47864;52.526;19.672;2023-06-04T01:24:10;151187.78;;;8.71;100.00
61908;BME280;47864;52.526;19.672;2023-06-04T01:26:11;151149.91;;;8.56;100.00
61908;BME280;47864;52.526;19.672;2023-06-04T01:28:15;151176.38;;;8.67;100.00
61908;BME280;47864;52.526;19.672;2023-06-04T01:30:40;151170.09;;;8.64;100.00
61908;BME280;47864;52.526;19.672;2023-06-04T01:32:39;151170.09;;;8.64;100.00
61908;BME280;47864;52.526;19.672;2023-06-04T01:34:45;151162.53;;;8.61;100.00
61908;BME280;47864;52.526;19.672;2023-06-04T01:36:47;151148.66;;;8.56;100.00
61908;BME280;47864;52.526;19.672;2023-06-04T01:38:49;151167.56;;;8.63;100.00
61908;BME280;47864;52.526;19.672;2023-06-04T01:40:50;151085.50;;;8.30;100.00
61908;BME280;47864;52.526;19.672;2023-06-04T01:42:52;151139.78;;;8.52;100.00
61908;BME280;47864;52.526;19.672;2023-06-04T01:44:54;151157.47;;;8.59;100.00
61908;BME280;47864;52.526;19.672;2023-06-04T01:46:56;151162.53;;;8.61;100.00
61908;BME280;47864;52.526;19.672;2023-06-04T01:48:58;151167.56;;;8.63;100.00
61908;BME280;47864;52.526;19.672;2023-06-04T01:50:59;151167.56;;;8.63;100.00
61908;BME280;47864;52.526;19.672;2023-06-04T01:53:01;151194.03;;;8.74;100.00
61908;BME280;47864;52.526;19.672;2023-06-04T01:55:04;151192.78;;;8.73;100.00
61908;BME280;47864;52.526;19.672;2023-06-04T01:57:06;151185.25;;;8.70;100.00
61908;BME280;47864;52.526;19.672;2023-06-04T01:59:07;151183.97;;;8.70;100.00
61908;BME280;47864;52.526;19.672;2023-06-04T02:01:09;151166.31;;;8.63;100.00
61908;BME280;47864;52.526;19.672;2023-06-04T02:03:10;151175.13;;;8.66;100.00
61908;BME280;47864;52.526;19.672;2023-06-04T02:05:12;151187.78;;;8.71;100.00
61908;BME280;47864;52.526;19.672;2023-06-04T02:07:14;151172.59;;;8.65;100.00
61908;BME280;47864;52.526;19.672;2023-06-04T02:09:15;151172.59;;;8.65;100.00
61908;BME280;47864;52.526;19.672;2023-06-04T02:11:17;151176.38;;;8.67;100.00
61908;BME280;47864;52.526;19.672;2023-06-04T02:13:18;151176.38;;;8.67;100.00
61908;BME280;47864;52.526;19.672;2023-06-04T02:15:20;151170.09;;;8.64;100.00
61908;BME280;47864;52.526;19.672;2023-06-04T02:17:22;151172.59;;;8.65;100.00
61908;BME280;47864;52.526;19.672;2023-06-04T02:19:24;151175.13;;;8.66;100.00
61908;BME280;47864;52.526;19.672;2023-06-04T02:21:25;151171.31;;;8.65;100.00
61908;BME280;47864;52.526;19.672;2023-06-04T02:23:27;151147.38;;;8.55;100.00
61908;BME280;47864;52.526;19.672;2023-06-04T02:25:29;151170.09;;;8.64;100.00
61908;BME280;47864;52.526;19.672;2023-06-04T02:27:31;151178.91;;;8.68;100.00
61908;BME280;47864;52.526;19.672;2023-06-04T02:29:32;151185.25;;;8.70;100.00
61908;BME280;47864;52.526;19.672;2023-06-04T02:31:34;151158.72;;;8.60;100.00
61908;BME280;47864;52.526;19.672;2023-06-04T02:33:36;151149.91;;;8.56;100.00
61908;BME280;47864;52.526;19.672;2023-06-04T02:35:37;151151.13;;;8.57;100.00
61908;BME280;47864;52.526;19.672;2023-06-04T02:37:39;151157.47;;;8.59;100.00
61908;BME280;47864;52.526;19.672;2023-06-04T02:39:40;151154.94;;;8.58;100.00
61908;BME280;47864;52.526;19.672;2023-06-04T02:41:42;151146.13;;;8.55;100.00
61908;BME280;47864;52.526;19.672;2023-06-04T02:43:44;151149.91;;;8.56;100.00
61908;BME280;47864;52.526;19.672;2023-06-04T02:45:45;151128.47;;;8.48;100.00
61908;BME280;47864;52.526;19.672;2023-06-04T02:47:47;151132.19;;;8.49;100.00
61908;BME280;47864;52.526;19.672;2023-06-04T02:49:49;151119.59;;;8.44;100.00
61908;BME280;47864;52.526;19.672;2023-06-04T02:51:50;151132.19;;;8.49;100.00
61908;BME280;47864;52.526;19.672;2023-06-04T02:53:52;151142.31;;;8.53;100.00
61908;BME280;47864;52.526;19.672;2023-06-04T02:55:54;151163.78;;;8.62;100.00
61908;BME280;47864;52.526;19.672;2023-06-04T02:57:55;151172.59;;;8.65;100.00
61908;BME280;47864;52.526;19.672;2023-06-04T02:59:57;151173.84;;;8.66;100.00
61908;BME280;47864;52.526;19.672;2023-06-04T03:01:59;151175.13;;;8.66;100.00
61908;BME280;47864;52.526;19.672;2023-06-04T03:04:00;151192.78;;;8.73;100.00
61908;BME280;47864;52.526;19.672;2023-06-04T03:06:02;151186.50;;;8.71;100.00
61908;BME280;47864;52.526;19.672;2023-06-04T03:08:04;151200.38;;;8.76;100.00
61908;BME280;47864;52.526;19.672;2023-06-04T03:10:06;151205.44;;;8.78;100.00
61908;BME280;47864;52.526;19.672;2023-06-04T03:12:08;151215.50;;;8.83;100.00
61908;BME280;47864;52.526;19.672;2023-06-04T03:14:10;151228.16;;;8.88;100.00
61908;BME280;47864;52.526;19.672;2023-06-04T03:16:11;151245.81;;;8.95;100.00
61908;BME280;47864;52.526;19.672;2023-06-04T03:18:13;151279.91;;;9.08;100.00
61908;BME280;47864;52.526;19.672;2023-06-04T03:20:15;151307.69;;;9.20;100.00
61908;BME280;47864;52.526;19.672;2023-06-04T03:22:16;151326.63;;;9.27;100.00
61908;BME280;47864;52.526;19.672;2023-06-04T03:24:18;151330.44;;;9.29;100.00
61908;BME280;47864;52.526;19.672;2023-06-04T03:26:20;151359.44;;;9.40;100.00
61908;BME280;47864;52.526;19.672;2023-06-04T03:28:21;151364.50;;;9.42;100.00
61908;BME280;47864;52.526;19.672;2023-06-04T03:30:23;151375.91;;;9.47;100.00
61908;BME280;47864;52.526;19.672;2023-06-04T03:32:24;151426.41;;;9.67;100.00
61908;BME280;47864;52.526;19.672;2023-06-04T03:34:26;151428.94;;;9.68;100.00
61908;BME280;47864;52.526;19.672;2023-06-04T03:36:30;151495.91;;;9.95;100.00
61908;BME280;47864;52.526;19.672;2023-06-04T03:38:31;151550.22;;;10.17;100.00
61908;BME280;47864;52.526;19.672;2023-06-04T03:40:33;151562.88;;;10.22;100.00
61908;BME280;47864;52.526;19.672;2023-06-04T03:42:34;151591.97;;;10.34;100.00
61908;BME280;47864;52.526;19.672;2023-06-04T03:44:36;151595.78;;;10.35;100.00
61908;BME280;47864;52.526;19.672;2023-06-04T03:46:37;151605.84;;;10.39;100.00
61908;BME280;47864;52.526;19.672;2023-06-04T03:48:41;151638.75;;;10.52;100.00
61908;BME280;47864;52.526;19.672;2023-06-04T03:50:43;151664.00;;;10.62;100.00
61908;BME280;47864;52.526;19.672;2023-06-04T03:52:44;151712.03;;;10.82;100.00
61908;BME280;47864;52.526;19.672;2023-06-04T03:54:46;151728.47;;;10.88;100.00
61908;BME280;47864;52.526;19.672;2023-06-04T03:56:48;151760.09;;;11.01;100.00
61908;BME280;47864;52.526;19.672;2023-06-04T03:58:49;151771.47;;;11.05;100.00
61908;BME280;47864;52.526;19.672;2023-06-04T04:00:51;151804.38;;;11.19;99.25
61908;BME280;47864;52.526;19.672;2023-06-04T04:02:53;151832.16;;;11.30;96.39
61908;BME280;47864;52.526;19.672;2023-06-04T04:04:54;151880.25;;;11.49;94.55
61908;BME280;47864;52.526;19.672;2023-06-04T04:06:56;151856.19;;;11.39;94.49
61908;BME280;47864;52.526;19.672;2023-06-04T04:08:58;151932.06;;;11.70;93.09
61908;BME280;47864;52.526;19.672;2023-06-04T04:11:00;151924.53;;;11.67;92.04
61908;BME280;47864;52.526;19.672;2023-06-04T04:13:02;151967.59;;;11.84;90.56
61908;BME280;47864;52.526;19.672;2023-06-04T04:15:04;151992.84;;;11.94;90.05
61908;BME280;47864;52.526;19.672;2023-06-04T04:17:05;152010.63;;;12.01;89.02
61908;BME280;47864;52.526;19.672;2023-06-04T04:19:07;152048.56;;;12.16;87.66
61908;BME280;47864;52.526;19.672;2023-06-04T04:21:09;152059.94;;;12.21;86.86
61908;BME280;47864;52.526;19.672;2023-06-04T04:23:10;152101.69;;;12.38;86.17
61908;BME280;47864;52.526;19.672;2023-06-04T04:25:12;152146.00;;;12.55;84.90
61908;BME280;47864;52.526;19.672;2023-06-04T04:27:13;152158.66;;;12.61;84.29
61908;BME280;47864;52.526;19.672;2023-06-04T04:29:15;152201.69;;;12.78;82.71
61908;BME280;47864;52.526;19.672;2023-06-04T04:31:17;152211.84;;;12.82;82.46
61908;BME280;47864;52.526;19.672;2023-06-04T04:33:18;152280.25;;;13.09;80.67
61908;BME280;47864;52.526;19.672;2023-06-04T04:35:20;152247.28;;;12.96;82.24
61908;BME280;47864;52.526;19.672;2023-06-04T04:37:21;152286.53;;;13.12;81.70
61908;BME280;47864;52.526;19.672;2023-06-04T04:39:24;152324.59;;;13.27;79.65
61908;BME280;47864;52.526;19.672;2023-06-04T04:41:26;152311.94;;;13.22;79.92
61908;BME280;47864;52.526;19.672;2023-06-04T04:43:32;152376.53;;;13.48;79.25
61908;BME280;47864;52.526;19.672;2023-06-04T04:45:34;152371.47;;;13.46;78.75
61908;BME280;47864;52.526;19.672;2023-06-04T04:47:35;152384.09;;;13.51;79.06
61908;BME280;47864;52.526;19.672;2023-06-04T04:49:37;152414.53;;;13.63;79.77
61908;BME280;47864;52.526;19.672;2023-06-04T04:51:38;152456.34;;;13.80;79.46
61908;BME280;47864;52.526;19.672;2023-06-04T04:53:40;152490.53;;;13.93;79.33
61908;BME280;47864;52.526;19.672;2023-06-04T04:55:41;152499.44;;;13.97;78.76
61908;BME280;47864;52.526;19.672;2023-06-04T04:57:43;152593.19;;;14.34;78.18
61908;BME280;47864;52.526;19.672;2023-06-04T04:59:44;152638.88;;;14.53;76.63
61908;BME280;47864;52.526;19.672;2023-06-04T05:01:46;152619.88;;;14.45;76.12
61908;BME280;47864;52.526;19.672;2023-06-04T05:03:48;152642.69;;;14.54;75.38
61908;BME280;47864;52.526;19.672;2023-06-04T05:05:50;152798.63;;;15.16;74.13
61908;BME280;47864;52.526;19.672;2023-06-04T05:07:51;152870.94;;;15.45;72.61
61908;BME280;47864;52.526;19.672;2023-06-04T05:09:53;152846.84;;;15.36;71.85
61908;BME280;47864;52.526;19.672;2023-06-04T05:11:54;152897.66;;;15.56;70.92
61908;BME280;47864;52.526;19.672;2023-06-04T05:13:56;152945.84;;;15.75;68.96
61908;BME280;47864;52.526;19.672;2023-06-04T05:15:58;152961.03;;;15.81;68.47
61908;BME280;47864;52.526;19.672;2023-06-04T05:17:59;152971.22;;;15.85;66.54
61908;BME280;47864;52.526;19.672;2023-06-04T05:20:01;152982.63;;;15.90;64.77
61908;BME280;47864;52.526;19.672;2023-06-04T05:22:03;152954.72;;;15.79;64.22
61908;BME280;47864;52.526;19.672;2023-06-04T05:24:05;153039.75;;;16.13;63.78
61908;BME280;47864;52.526;19.672;2023-06-04T05:26:06;153132.38;;;16.50;63.06
61908;BME280;47864;52.526;19.672;2023-06-04T05:28:08;153038.47;;;16.12;60.52
61908;BME280;47864;52.526;19.672;2023-06-04T05:30:10;153061.34;;;16.21;59.31
61908;BME280;47864;52.526;19.672;2023-06-04T05:32:12;153098.13;;;16.36;57.50
61908;BME280;47864;52.526;19.672;2023-06-04T05:34:13;153160.38;;;16.61;56.31
61908;BME280;47864;52.526;19.672;2023-06-04T05:36:15;153202.28;;;16.78;55.06
61908;BME280;47864;52.526;19.672;2023-06-04T05:38:16;153244.19;;;16.94;54.33
61908;BME280;47864;52.526;19.672;2023-06-04T05:40:18;153264.50;;;17.02;55.43
61908;BME280;47864;52.526;19.672;2023-06-04T05:42:19;153264.50;;;17.02;53.96
61908;BME280;47864;52.526;19.672;2023-06-04T05:44:21;153330.53;;;17.29;53.07
61908;BME280;47864;52.526;19.672;2023-06-04T05:46:22;153373.69;;;17.46;53.49
61908;BME280;47864;52.526;19.672;2023-06-04T05:48:24;153357.19;;;17.39;53.70
61908;BME280;47864;52.526;19.672;2023-06-04T05:50:26;153491.91;;;17.93;53.47
61908;BME280;47864;52.526;19.672;2023-06-04T05:52:28;153447.44;;;17.75;52.52
61908;BME280;47864;52.526;19.672;2023-06-04T05:54:29;153526.22;;;18.07;50.90
61908;BME280;47864;52.526;19.672;2023-06-04T05:56:31;153558.00;;;18.19;49.69
61908;BME280;47864;52.526;19.672;2023-06-04T05:58:33;153677.53;;;18.67;49.35
61908;BME280;47864;52.526;19.672;2023-06-04T06:00:35;153747.44;;;18.95;48.16
61908;BME280;47864;52.526;19.672;2023-06-04T06:02:36;153798.31;;;19.15;46.30
61908;BME280;47864;52.526;19.672;2023-06-04T06:04:38;153804.69;;;19.18;47.04
61908;BME280;47864;52.526;19.672;2023-06-04T06:06:40;153800.84;;;19.16;47.18
61908;BME280;47864;52.526;19.672;2023-06-04T06:08:42;153788.13;;;19.11;46.82
61908;BME280;47864;52.526;19.672;2023-06-04T06:10:43;153696.59;;;18.75;47.58
61908;BME280;47864;52.526;19.672;2023-06-04T06:12:45;153846.66;;;19.34;47.15
61908;BME280;47864;52.526;19.672;2023-06-04T06:14:47;153864.47;;;19.42;46.55
61908;BME280;47864;52.526;19.672;2023-06-04T06:16:48;153727.09;;;18.87;46.72
61908;BME280;47864;52.526;19.672;2023-06-04T06:18:50;153807.22;;;19.19;47.51
61908;BME280;47864;52.526;19.672;2023-06-04T06:20:52;153791.94;;;19.13;47.54
61908;BME280;47864;52.526;19.672;2023-06-04T06:22:53;153925.56;;;19.66;46.42
61908;BME280;47864;52.526;19.672;2023-06-04T06:24:54;154012.06;;;20.00;46.31
61908;BME280;47864;52.526;19.672;2023-06-04T06:26:56;154186.47;;;20.70;46.48
61908;BME280;47864;52.526;19.672;2023-06-04T06:28:57;154219.59;;;20.83;43.93
61908;BME280;47864;52.526;19.672;2023-06-04T06:30:59;154414.44;;;21.60;41.45
61908;BME280;47864;52.526;19.672;2023-06-04T06:33:01;154294.69;;;21.13;42.58
61908;BME280;47864;52.526;19.672;2023-06-04T06:35:02;154401.72;;;21.55;40.92
61908;BME280;47864;52.526;19.672;2023-06-04T06:37:06;154567.38;;;22.21;41.70
61908;BME280;47864;52.526;19.672;2023-06-04T06:39:08;154773.91;;;23.03;38.71
61908;BME280;47864;52.526;19.672;2023-06-04T06:41:09;154946.09;;;23.72;37.24
61908;BME280;47864;52.526;19.672;2023-06-04T06:43:11;155092.78;;;24.30;35.88
61908;BME280;47864;52.526;19.672;2023-06-04T06:45:12;155026.44;;;24.04;35.21
61908;BME280;47864;52.526;19.672;2023-06-04T06:47:14;155169.38;;;24.60;35.68
61908;BME280;47864;52.526;19.672;2023-06-04T06:49:16;155304.69;;;25.14;34.11
61908;BME280;47864;52.526;19.672;2023-06-04T06:51:17;155184.69;;;24.67;34.07
61908;BME280;47864;52.526;19.672;2023-06-04T06:53:19;155276.66;;;25.03;33.25
61908;BME280;47864;52.526;19.672;2023-06-04T06:55:20;155322.56;;;25.21;33.75
61908;BME280;47864;52.526;19.672;2023-06-04T06:57:22;155388.94;;;25.48;33.04
61908;BME280;47864;52.526;19.672;2023-06-04T06:59:24;155248.53;;;24.92;33.09
61908;BME280;47864;52.526;19.672;2023-06-04T07:01:26;155124.72;;;24.43;34.01
61908;BME280;47864;52.526;19.672;2023-06-04T07:03:27;155057.03;;;24.16;35.00
61908;BME280;47864;52.526;19.672;2023-06-04T07:05:29;154974.13;;;23.83;34.68
61908;BME280;47864;52.526;19.672;2023-06-04T07:07:31;154983.06;;;23.86;36.19
61908;BME280;47864;52.526;19.672;2023-06-04T07:09:32;155029.00;;;24.05;35.29
61908;BME280;47864;52.526;19.672;2023-06-04T07:11:34;155202.53;;;24.74;35.52
61908;BME280;47864;52.526;19.672;2023-06-04T07:13:35;155220.41;;;24.81;34.73
61908;BME280;47864;52.526;19.672;2023-06-04T07:15:37;155249.81;;;24.92;33.04
61908;BME280;47864;52.526;19.672;2023-06-04T07:17:39;155311.09;;;25.17;34.40
61908;BME280;47864;52.526;19.672;2023-06-04T07:19:40;155429.84;;;25.64;32.39
61908;BME280;47864;52.526;19.672;2023-06-04T07:21:42;155317.47;;;25.19;32.20
61908;BME280;47864;52.526;19.672;2023-06-04T07:23:43;155359.63;;;25.36;32.70
61908;BME280;47864;52.526;19.672;2023-06-04T07:25:46;155423.47;;;25.61;32.65
61908;BME280;47864;52.526;19.672;2023-06-04T07:27:48;155465.59;;;25.78;32.33
61908;BME280;47864;52.526;19.672;2023-06-04T07:29:49;155211.50;;;24.77;31.14
61908;BME280;47864;52.526;19.672;2023-06-04T07:31:51;155202.53;;;24.74;30.60
61908;BME280;47864;52.526;19.672;2023-06-04T07:33:53;155261.28;;;24.97;30.30
61908;BME280;47864;52.526;19.672;2023-06-04T07:35:54;155354.50;;;25.34;29.97
61908;BME280;47864;52.526;19.672;2023-06-04T07:37:56;155420.94;;;25.60;28.63
61908;BME280;47864;52.526;19.672;2023-06-04T07:39:58;155353.22;;;25.33;29.01
61908;BME280;47864;52.526;19.672;2023-06-04T07:41:59;155450.28;;;25.72;28.81
61908;BME280;47864;52.526;19.672;2023-06-04T07:44:01;155460.53;;;25.76;28.67
61908;BME280;47864;52.526;19.672;2023-06-04T07:46:05;155337.91;;;25.27;29.47
61908;BME280;47864;52.526;19.672;2023-06-04T07:48:09;155365.97;;;25.38;29.43
61908;BME280;47864;52.526;19.672;2023-06-04T07:50:10;155415.78;;;25.58;27.47
61908;BME280;47864;52.526;19.672;2023-06-04T07:52:12;155543.53;;;26.09;27.80
61908;BME280;47864;52.526;19.672;2023-06-04T07:54:14;155461.81;;;25.76;27.56
61908;BME280;47864;52.526;19.672;2023-06-04T07:56:15;155592.09;;;26.28;27.71
61908;BME280;47864;52.526;19.672;2023-06-04T07:58:17;155613.81;;;26.37;27.71
61908;BME280;47864;52.526;19.672;2023-06-04T08:00:18;155659.81;;;26.55;27.48
61908;BME280;47864;52.526;19.672;2023-06-04T08:02:20;155652.13;;;26.52;26.75
61908;BME280;47864;52.526;19.672;2023-06-04T08:04:22;155562.69;;;26.17;28.17
61908;BME280;47864;52.526;19.672;2023-06-04T08:06:24;155606.16;;;26.34;28.17
61908;BME280;47864;52.526;19.672;2023-06-04T08:08:25;155256.22;;;24.95;29.10
61908;BME280;47864;52.526;19.672;2023-06-04T08:10:27;155041.75;;;24.10;29.35
61908;BME280;47864;52.526;19.672;2023-06-04T08:12:28;154569.94;;;22.22;32.47
61908;BME280;47864;52.526;19.672;2023-06-04T08:16:50;154753.50;;;22.95;32.41
61908;BME280;47864;52.526;19.672;2023-06-04T08:18:54;154729.25;;;22.86;31.96
61908;BME280;47864;52.526;19.672;2023-06-04T08:20:56;154779.00;;;23.05;32.02
61908;BME280;47864;52.526;19.672;2023-06-04T08:22:58;154721.59;;;22.83;32.33
61908;BME280;47864;52.526;19.672;2023-06-04T08:25:00;154729.25;;;22.86;32.27
61908;BME280;47864;52.526;19.672;2023-06-04T08:27:01;154702.47;;;22.75;32.65
61908;BME280;47864;52.526;19.672;2023-06-04T08:29:03;154721.59;;;22.83;32.74
61908;BME280;47864;52.526;19.672;2023-06-04T08:31:05;154734.38;;;22.88;33.28
61908;BME280;47864;52.526;19.672;2023-06-04T08:33:06;154712.69;;;22.79;32.21
61908;BME280;47864;52.526;19.672;2023-06-04T08:35:11;154493.41;;;21.92;33.20
61908;BME280;47864;52.526;19.672;2023-06-04T08:37:13;154278.13;;;21.06;34.24
61908;BME280;47864;52.526;19.672;2023-06-04T08:39:14;154203.00;;;20.76;34.76
61908;BME280;47864;52.526;19.672;2023-06-04T08:41:23;154236.13;;;20.89;35.04
61908;BME280;47864;52.526;19.672;2023-06-04T08:43:26;154318.94;;;21.22;34.74
61908;BME280;47864;52.526;19.672;2023-06-04T08:45:27;154334.19;;;21.29;34.36
61908;BME280;47864;52.526;19.672;2023-06-04T08:47:29;154279.41;;;21.07;34.58
61908;BME280;47864;52.526;19.672;2023-06-04T08:49:35;154276.88;;;21.06;35.38
61908;BME280;47864;52.526;19.672;2023-06-04T08:51:37;154287.03;;;21.10;34.09
61908;BME280;47864;52.526;19.672;2023-06-04T08:53:39;154246.28;;;20.94;34.65
61908;BME280;47864;52.526;19.672;2023-06-04T08:55:41;154318.94;;;21.22;34.47
61908;BME280;47864;52.526;19.672;2023-06-04T08:57:42;154324.03;;;21.24;34.79
61908;BME280;47864;52.526;19.672;2023-06-04T08:59:45;154362.25;;;21.40;34.22
61908;BME280;47864;52.526;19.672;2023-06-04T09:01:47;154266.66;;;21.02;33.57
61908;BME280;47864;52.526;19.672;2023-06-04T09:03:49;154344.41;;;21.33;35.52
61908;BME280;47864;52.526;19.672;2023-06-04T09:05:51;154223.38;;;20.84;35.70
61908;BME280;47864;52.526;19.672;2023-06-04T09:07:55;154182.63;;;20.68;36.37
61908;BME280;47864;52.526;19.672;2023-06-04T09:10:01;154364.78;;;21.41;35.61
61908;BME280;47864;52.526;19.672;2023-06-04T09:12:18;154608.16;;;22.37;33.78
61908;BME280;47864;52.526;19.672;2023-06-04T09:14:23;154343.13;;;21.32;33.38
61908;BME280;47864;52.526;19.672;2023-06-04T09:16:24;154406.81;;;21.57;33.53
61908;BME280;47864;52.526;19.672;2023-06-04T09:18:26;154538.03;;;22.10;33.58
61908;BME280;47864;52.526;19.672;2023-06-04T09:20:28;154770.06;;;23.02;32.06
61908;BME280;47864;52.526;19.672;2023-06-04T09:22:36;154859.31;;;23.37;32.30
61908;BME280;47864;52.526;19.672;2023-06-04T09:24:43;154731.81;;;22.87;31.06
61908;BME280;47864;52.526;19.672;2023-06-04T09:26:45;154639.97;;;22.50;31.50
61908;BME280;47864;52.526;19.672;2023-06-04T09:28:46;154662.94;;;22.59;31.65
61908;BME280;47864;52.526;19.672;2023-06-04T09:30:54;154624.69;;;22.44;32.68
61908;BME280;47864;52.526;19.672;2023-06-04T09:33:06;154527.88;;;22.06;32.95
61908;BME280;47864;52.526;19.672;2023-06-04T09:35:13;154409.31;;;21.58;33.26
61908;BME280;47864;52.526;19.672;2023-06-04T09:37:15;154368.56;;;21.42;35.36
61908;BME280;47864;52.526;19.672;2023-06-04T09:39:17;154400.44;;;21.55;34.05
61908;BME280;47864;52.526;19.672;2023-06-04T09:41:19;154450.09;;;21.75;33.42
61908;BME280;47864;52.526;19.672;2023-06-04T09:43:22;154470.47;;;21.83;32.74
61908;BME280;47864;52.526;19.672;2023-06-04T09:45:41;154419.53;;;21.62;33.40
61908;BME280;47864;52.526;19.672;2023-06-04T09:47:43;154392.78;;;21.52;33.73
61908;BME280;47864;52.526;19.672;2023-06-04T09:49:47;154447.59;;;21.74;33.58
61908;BME280;47864;52.526;19.672;2023-06-04T09:51:48;154600.47;;;22.34;33.25
61908;BME280;47864;52.526;19.672;2023-06-04T09:53:54;154735.66;;;22.88;32.70
61908;BME280;47864;52.526;19.672;2023-06-04T09:56:00;154809.56;;;23.18;32.28
61908;BME280;47864;52.526;19.672;2023-06-04T09:58:03;154819.78;;;23.22;30.29
61908;BME280;47864;52.526;19.672;2023-06-04T10:00:05;154812.13;;;23.19;31.98
61908;BME280;47864;52.526;19.672;2023-06-04T10:02:09;154808.28;;;23.17;30.43
61908;BME280;47864;52.526;19.672;2023-06-04T10:04:13;154866.94;;;23.40;30.75
61908;BME280;47864;52.526;19.672;2023-06-04T10:06:15;154807.03;;;23.17;30.07
61908;BME280;47864;52.526;19.672;2023-06-04T10:08:17;154744.56;;;22.92;30.37
61908;BME280;47864;52.526;19.672;2023-06-04T10:10:22;154664.22;;;22.60;30.38
61908;BME280;47864;52.526;19.672;2023-06-04T10:12:27;154819.78;;;23.22;29.28
61908;BME280;47864;52.526;19.672;2023-06-04T10:14:36;154851.66;;;23.34;30.03
61908;BME280;47864;52.526;19.672;2023-06-04T10:16:42;154854.22;;;23.35;29.87
61908;BME280;47864;52.526;19.672;2023-06-04T10:18:44;155087.72;;;24.28;28.91
61908;BME280;47864;52.526;19.672;2023-06-04T10:20:46;155106.84;;;24.36;29.47
61908;BME280;47864;52.526;19.672;2023-06-04T10:22:49;155184.69;;;24.67;27.75
61908;BME280;47864;52.526;19.672;2023-06-04T10:24:50;155018.78;;;24.01;30.16
61908;BME280;47864;52.526;19.672;2023-06-04T10:26:54;155113.22;;;24.38;29.37
61908;BME280;47864;52.526;19.672;2023-06-04T10:28:57;155197.44;;;24.72;28.67
61908;BME280;47864;52.526;19.672;2023-06-04T10:30:58;155157.88;;;24.56;28.67
61908;BME280;47864;52.526;19.672;2023-06-04T10:33:00;155281.72;;;25.05;27.78
61908;BME280;47864;52.526;19.672;2023-06-04T10:35:05;155157.88;;;24.56;29.15
61908;BME280;47864;52.526;19.672;2023-06-04T10:37:06;155210.22;;;24.77;28.03
61908;BME280;47864;52.526;19.672;2023-06-04T10:39:26;155261.28;;;24.97;27.57